BEE123 EGJJ-EGJB

Flight info

Callsign BEE123
Flight time 0h 13m
Altitude 4000
Route GUR
Aircraft DH8D/L-V/N

Departure

Time 2026-04-26 19:56
Airport Jersey Airport (EGJJ)

Arrival

Time 2026-04-26 20:09
Airport Guernsey Airport (EGJB)
Time Latitude Longitude Altitude Speed Heading
2026-04-26 19:37 49.20484 -2.19784 270 ft 0 kts 354°
2026-04-26 19:43 49.20479 -2.19783 270 ft 2 kts 352°
2026-04-26 19:43 49.20465 -2.19780 270 ft 2 kts 352°
2026-04-26 19:43 49.20450 -2.19777 270 ft 2 kts 352°
2026-04-26 19:43 49.20435 -2.19774 270 ft 2 kts 352°
2026-04-26 19:44 49.20425 -2.19771 271 ft 1 kts 353°
2026-04-26 19:44 49.20422 -2.19771 271 ft 0 kts 354°
2026-04-26 19:46 49.20432 -2.19796 270 ft 8 kts 272°
2026-04-26 19:46 49.20461 -2.19911 269 ft 12 kts 343°
2026-04-26 19:47 49.20521 -2.20018 269 ft 18 kts 282°
2026-04-26 19:47 49.20545 -2.20139 269 ft 15 kts 288°
2026-04-26 19:47 49.20575 -2.20297 267 ft 8 kts 287°
2026-04-26 19:47 49.20588 -2.20360 265 ft 4 kts 287°
2026-04-26 19:48 49.20596 -2.20399 264 ft 2 kts 287°
2026-04-26 19:48 49.20600 -2.20422 263 ft 1 kts 287°
2026-04-26 19:48 49.20603 -2.20434 262 ft 0 kts 287°
2026-04-26 19:48 49.20615 -2.20502 259 ft 6 kts 283°
2026-04-26 19:49 49.20617 -2.20515 258 ft 0 kts 281°
2026-04-26 19:53 49.20618 -2.20523 258 ft 6 kts 280°
2026-04-26 19:53 49.20625 -2.20632 251 ft 11 kts 274°
2026-04-26 19:54 49.20686 -2.20694 248 ft 9 kts 31°
2026-04-26 19:54 49.20697 -2.20672 250 ft 0 kts 72°
2026-04-26 19:55 49.20698 -2.20669 250 ft 2 kts 72°
2026-04-26 19:55 49.20728 -2.20358 265 ft 73 kts 83°
2026-04-26 19:55 49.20827 -2.19151 323 ft 141 kts 81°
2026-04-26 19:55 49.20954 -2.17593 870 ft 157 kts 81°
2026-04-26 19:56 49.21103 -2.15886 1538 ft 171 kts 78°
2026-04-26 19:56 49.21566 -2.14096 1850 ft 194 kts 51°
2026-04-26 19:56 49.22765 -2.13181 2287 ft 206 kts
2026-04-26 19:56 49.24208 -2.13811 2280 ft 228 kts 344°
2026-04-26 19:57 49.25750 -2.14720 2336 ft 240 kts 333°
2026-04-26 19:57 49.26932 -2.16552 2397 ft 250 kts 308°
2026-04-26 19:57 49.27698 -2.18979 2120 ft 251 kts 295°
2026-04-26 19:57 49.28291 -2.21312 2264 ft 219 kts 295°
2026-04-26 19:58 49.28865 -2.23515 2090 ft 235 kts 296°
2026-04-26 19:58 49.29485 -2.25822 2056 ft 235 kts 296°
2026-04-26 19:58 49.30099 -2.28149 1972 ft 229 kts 295°
2026-04-26 19:58 49.30696 -2.30423 1874 ft 224 kts 295°
2026-04-26 19:59 49.31266 -2.32595 1955 ft 220 kts 295°
2026-04-26 19:59 49.31831 -2.34750 1987 ft 219 kts 295°
2026-04-26 19:59 49.32402 -2.36924 2000 ft 219 kts 295°
2026-04-26 19:59 49.32968 -2.39073 2005 ft 219 kts 295°
2026-04-26 20:00 49.33541 -2.41245 2007 ft 219 kts 295°
2026-04-26 20:00 49.34119 -2.43420 2007 ft 219 kts 295°
2026-04-26 20:00 49.34697 -2.45589 2008 ft 220 kts 295°
2026-04-26 20:00 49.35274 -2.47745 2008 ft 220 kts 295°
2026-04-26 20:01 49.35841 -2.49930 2004 ft 221 kts 290°
2026-04-26 20:01 49.35968 -2.52366 2034 ft 235 kts 269°
2026-04-26 20:01 49.35896 -2.54933 2028 ft 248 kts 270°
2026-04-26 20:01 49.35835 -2.57606 2011 ft 250 kts 270°
2026-04-26 20:02 49.35770 -2.60246 2006 ft 247 kts 270°
2026-04-26 20:02 49.35706 -2.62858 2005 ft 244 kts 270°
2026-04-26 20:02 49.35643 -2.65469 2004 ft 242 kts 269°
2026-04-26 20:02 49.35603 -2.67171 2004 ft 241 kts 269°
2026-04-26 20:03 49.35521 -2.70592 2005 ft 238 kts 269°
2026-04-26 20:03 49.35460 -2.73091 2005 ft 237 kts 269°
2026-04-26 20:03 49.35399 -2.75625 2005 ft 235 kts 269°
2026-04-26 20:03 49.35336 -2.78136 2005 ft 234 kts 269°
2026-04-26 20:04 49.35372 -2.80612 1990 ft 231 kts 283°
2026-04-26 20:04 49.36092 -2.82734 2000 ft 223 kts 316°
2026-04-26 20:04 49.37386 -2.83881 2003 ft 216 kts 348°
2026-04-26 20:04 49.38858 -2.83856 2017 ft 212 kts 13°
2026-04-26 20:05 49.40129 -2.82824 2006 ft 209 kts 45°
2026-04-26 20:05 49.40826 -2.80880 2020 ft 209 kts 71°
2026-04-26 20:05 49.41312 -2.78788 2079 ft 199 kts 68°
2026-04-26 20:05 49.41765 -2.76982 2110 ft 170 kts 68°
2026-04-26 20:06 49.42153 -2.75399 2021 ft 149 kts 67°
2026-04-26 20:06 49.42500 -2.73930 1907 ft 146 kts 69°
2026-04-26 20:06 49.42804 -2.72423 1721 ft 146 kts 73°
2026-04-26 20:06 49.43035 -2.70928 1537 ft 145 kts 76°
2026-04-26 20:07 49.43221 -2.69403 1304 ft 146 kts 81°
2026-04-26 20:07 49.43254 -2.67897 1221 ft 138 kts 90°
2026-04-26 20:07 49.43282 -2.66446 1095 ft 132 kts 85°
2026-04-26 20:07 49.43333 -2.65184 940 ft 112 kts 84°
2026-04-26 20:08 49.43373 -2.64012 625 ft 106 kts 85°
2026-04-26 20:08 49.43411 -2.62864 548 ft 110 kts 86°
2026-04-26 20:08 49.43447 -2.61694 401 ft 110 kts 85°
2026-04-26 20:08 49.43480 -2.60541 309 ft 96 kts 87°
2026-04-26 20:09 49.43502 -2.59873 330 ft 41 kts 86°
2026-04-26 20:09 49.43513 -2.59554 337 ft 20 kts 86°
2026-04-26 20:09 49.43518 -2.59361 338 ft 19 kts 87°
2026-04-26 20:09 49.43487 -2.59204 336 ft 12 kts 166°
2026-04-26 20:10 49.43424 -2.59199 336 ft 7 kts 182°
2026-04-26 20:10 49.43374 -2.59253 337 ft 9 kts 250°
2026-04-26 20:10 49.43370 -2.59372 338 ft 12 kts 267°
2026-04-26 20:10 49.43363 -2.59516 338 ft 14 kts 266°
2026-04-26 20:11 49.43332 -2.59596 338 ft 5 kts 186°
2026-04-26 20:11 49.43301 -2.59592 338 ft 5 kts 179°
2026-04-26 20:11 49.43273 -2.59591 338 ft 1 kts 178°
2026-04-26 20:12 49.43261 -2.59591 338 ft 0 kts 178°
2026-04-26 20:12 49.43262 -2.59591 338 ft 0 kts 178°
2026-04-26 20:13 49.43261 -2.59591 338 ft 0 kts 178°